sensor_id;sensor_type;location;lat;lon;timestamp;pressure;altitude;pressure_sealevel;temperature;humidity
5755;BME280;2902;42.130;24.732;2023-04-15T00:01:07;98738.59;;;13.63;81.43
5755;BME280;2902;42.130;24.732;2023-04-15T00:03:34;98723.53;;;13.57;81.81
5755;BME280;2902;42.130;24.732;2023-04-15T00:06:01;98714.66;;;13.68;81.79
5755;BME280;2902;42.130;24.732;2023-04-15T00:08:29;98721.50;;;13.64;81.49
5755;BME280;2902;42.130;24.732;2023-04-15T00:11:00;98725.50;;;13.50;82.11
5755;BME280;2902;42.130;24.732;2023-04-15T00:13:30;98726.41;;;13.44;82.52
5755;BME280;2902;42.130;24.732;2023-04-15T00:15:57;98711.00;;;13.35;82.84
5755;BME280;2902;42.130;24.732;2023-04-15T00:18:25;98730.47;;;13.35;82.81
5755;BME280;2902;42.130;24.732;2023-04-15T00:20:56;98744.84;;;13.46;83.36
5755;BME280;2902;42.130;24.732;2023-04-15T00:23:24;98741.50;;;13.50;82.63
5755;BME280;2902;42.130;24.732;2023-04-15T00:25:51;98750.88;;;13.53;82.86
5755;BME280;2902;42.130;24.732;2023-04-15T00:28:19;98749.03;;;13.42;82.69
5755;BME280;2902;42.130;24.732;2023-04-15T00:30:48;98754.13;;;13.43;83.05
5755;BME280;2902;42.130;24.732;2023-04-15T00:33:15;98753.69;;;13.46;83.13
5755;BME280;2902;42.130;24.732;2023-04-15T00:35:43;98739.88;;;13.49;83.15
5755;BME280;2902;42.130;24.732;2023-04-15T00:38:10;98720.72;;;13.52;82.61
5755;BME280;2902;42.130;24.732;2023-04-15T00:40:39;98732.53;;;13.56;82.34
5755;BME280;2902;42.130;24.732;2023-04-15T00:43:08;98736.72;;;13.52;82.34
5755;BME280;2902;42.130;24.732;2023-04-15T00:45:37;98734.28;;;13.51;82.56
5755;BME280;2902;42.130;24.732;2023-04-15T00:48:06;98736.97;;;13.39;82.92
5755;BME280;2902;42.130;24.732;2023-04-15T00:50:35;98740.91;;;13.25;83.62
5755;BME280;2902;42.130;24.732;2023-04-15T00:53:02;98740.66;;;13.15;83.69
5755;BME280;2902;42.130;24.732;2023-04-15T00:55:29;98733.22;;;13.06;83.81
5755;BME280;2902;42.130;24.732;2023-04-15T00:57:57;98741.78;;;12.96;84.04
5755;BME280;2902;42.130;24.732;2023-04-15T01:00:25;98736.63;;;12.83;83.75
5755;BME280;2902;42.130;24.732;2023-04-15T01:02:54;98726.13;;;12.88;84.06
5755;BME280;2902;42.130;24.732;2023-04-15T01:05:22;98723.78;;;12.80;83.57
5755;BME280;2902;42.130;24.732;2023-04-15T01:07:52;98716.34;;;12.71;84.22
5755;BME280;2902;42.130;24.732;2023-04-15T01:10:20;98703.69;;;12.66;83.42
5755;BME280;2902;42.130;24.732;2023-04-15T01:12:50;98708.03;;;12.79;83.60
5755;BME280;2902;42.130;24.732;2023-04-15T01:15:17;98714.94;;;12.68;83.29
5755;BME280;2902;42.130;24.732;2023-04-15T01:17:45;98728.28;;;12.68;82.93
5755;BME280;2902;42.130;24.732;2023-04-15T01:20:14;98734.97;;;12.59;82.94
5755;BME280;2902;42.130;24.732;2023-04-15T01:22:42;98735.31;;;12.63;83.14
5755;BME280;2902;42.130;24.732;2023-04-15T01:25:17;98732.44;;;12.64;82.42
5755;BME280;2902;42.130;24.732;2023-04-15T01:27:47;98734.78;;;12.72;82.00
5755;BME280;2902;42.130;24.732;2023-04-15T01:30:24;98744.63;;;12.83;81.41
5755;BME280;2902;42.130;24.732;2023-04-15T01:32:54;98759.94;;;12.88;79.73
5755;BME280;2902;42.130;24.732;2023-04-15T01:35:25;98754.72;;;12.81;79.67
5755;BME280;2902;42.130;24.732;2023-04-15T01:37:52;98737.00;;;12.75;79.66
5755;BME280;2902;42.130;24.732;2023-04-15T01:40:22;98742.88;;;12.77;78.88
5755;BME280;2902;42.130;24.732;2023-04-15T01:42:55;98746.72;;;12.81;78.44
5755;BME280;2902;42.130;24.732;2023-04-15T01:45:23;98758.44;;;12.80;77.64
5755;BME280;2902;42.130;24.732;2023-04-15T01:47:50;98769.53;;;12.77;78.27
5755;BME280;2902;42.130;24.732;2023-04-15T01:50:20;98748.75;;;12.68;77.83
5755;BME280;2902;42.130;24.732;2023-04-15T01:52:47;98768.56;;;12.60;77.60
5755;BME280;2902;42.130;24.732;2023-04-15T01:55:14;98778.09;;;12.38;77.75
5755;BME280;2902;42.130;24.732;2023-04-15T01:57:44;98780.81;;;12.32;78.21
5755;BME280;2902;42.130;24.732;2023-04-15T02:00:17;98789.25;;;12.11;78.73
5755;BME280;2902;42.130;24.732;2023-04-15T02:02:44;98800.00;;;12.04;78.68
5755;BME280;2902;42.130;24.732;2023-04-15T02:05:11;98802.22;;;11.89;79.43
5755;BME280;2902;42.130;24.732;2023-04-15T02:07:40;98802.94;;;11.96;79.78
5755;BME280;2902;42.130;24.732;2023-04-15T02:10:10;98806.22;;;11.98;78.37
5755;BME280;2902;42.130;24.732;2023-04-15T02:12:38;98802.94;;;11.96;78.62
5755;BME280;2902;42.130;24.732;2023-04-15T02:15:06;98802.94;;;11.96;79.35
5755;BME280;2902;42.130;24.732;2023-04-15T02:17:40;98789.84;;;11.95;79.27
5755;BME280;2902;42.130;24.732;2023-04-15T02:20:18;98790.09;;;11.93;78.47
5755;BME280;2902;42.130;24.732;2023-04-15T02:22:52;98780.94;;;11.89;78.72
5755;BME280;2902;42.130;24.732;2023-04-15T02:25:20;98787.66;;;11.92;78.55
5755;BME280;2902;42.130;24.732;2023-04-15T02:27:49;98793.47;;;12.00;77.61
5755;BME280;2902;42.130;24.732;2023-04-15T02:30:17;98798.72;;;12.07;77.60
5755;BME280;2902;42.130;24.732;2023-04-15T02:32:48;98803.69;;;12.03;77.32
5755;BME280;2902;42.130;24.732;2023-04-15T02:35:15;98790.91;;;12.12;77.01
5755;BME280;2902;42.130;24.732;2023-04-15T02:37:44;98790.84;;;12.18;76.80
5755;BME280;2902;42.130;24.732;2023-04-15T02:40:12;98789.03;;;12.12;77.13
5755;BME280;2902;42.130;24.732;2023-04-15T02:42:41;98782.84;;;12.00;76.48
5755;BME280;2902;42.130;24.732;2023-04-15T02:45:10;98776.25;;;12.03;76.94
5755;BME280;2902;42.130;24.732;2023-04-15T02:47:40;98775.91;;;11.99;76.48
5755;BME280;2902;42.130;24.732;2023-04-15T02:50:13;98797.94;;;12.06;76.59
5755;BME280;2902;42.130;24.732;2023-04-15T02:52:43;98807.69;;;12.12;76.11
5755;BME280;2902;42.130;24.732;2023-04-15T02:55:11;98800.59;;;12.06;76.06
5755;BME280;2902;42.130;24.732;2023-04-15T02:57:39;98804.44;;;12.10;76.44
5755;BME280;2902;42.130;24.732;2023-04-15T03:00:10;98811.66;;;12.21;76.25
5755;BME280;2902;42.130;24.732;2023-04-15T03:02:44;98814.19;;;12.16;76.15
5755;BME280;2902;42.130;24.732;2023-04-15T03:05:18;98808.59;;;12.06;76.30
5755;BME280;2902;42.130;24.732;2023-04-15T03:07:45;98793.47;;;12.00;76.21
5755;BME280;2902;42.130;24.732;2023-04-15T03:10:14;98777.94;;;11.97;76.88
5755;BME280;2902;42.130;24.732;2023-04-15T03:12:41;98792.22;;;12.03;76.35
5755;BME280;2902;42.130;24.732;2023-04-15T03:15:09;98796.00;;;11.95;77.08
5755;BME280;2902;42.130;24.732;2023-04-15T03:17:41;98792.59;;;11.88;77.37
5755;BME280;2902;42.130;24.732;2023-04-15T03:20:11;98809.31;;;11.95;77.61
5755;BME280;2902;42.130;24.732;2023-04-15T03:22:47;98819.38;;;11.93;77.25
5755;BME280;2902;42.130;24.732;2023-04-15T03:25:14;98822.03;;;11.93;77.29
5755;BME280;2902;42.130;24.732;2023-04-15T03:27:48;98819.41;;;11.87;76.82
5755;BME280;2902;42.130;24.732;2023-04-15T03:30:16;98822.97;;;11.81;77.76
5755;BME280;2902;42.130;24.732;2023-04-15T03:32:52;98828.03;;;11.64;78.01
5755;BME280;2902;42.130;24.732;2023-04-15T03:35:25;98827.75;;;11.72;77.72
5755;BME280;2902;42.130;24.732;2023-04-15T03:38:05;98846.16;;;11.74;77.09
5755;BME280;2902;42.130;24.732;2023-04-15T03:40:33;98856.59;;;11.75;77.11
5755;BME280;2902;42.130;24.732;2023-04-15T03:43:11;98862.53;;;11.77;77.58
5755;BME280;2902;42.130;24.732;2023-04-15T03:45:38;98861.75;;;11.70;77.37
5755;BME280;2902;42.130;24.732;2023-04-15T03:48:05;98858.00;;;11.53;76.69
5755;BME280;2902;42.130;24.732;2023-04-15T03:50:33;98855.44;;;11.40;77.52
5755;BME280;2902;42.130;24.732;2023-04-15T03:53:08;98857.00;;;11.48;77.58
5755;BME280;2902;42.130;24.732;2023-04-15T03:55:35;98867.16;;;11.57;77.56
5755;BME280;2902;42.130;24.732;2023-04-15T03:58:02;98872.91;;;11.54;77.22
5755;BME280;2902;42.130;24.732;2023-04-15T04:00:32;98884.38;;;11.55;77.76
5755;BME280;2902;42.130;24.732;2023-04-15T04:03:00;98873.75;;;11.55;76.80
5755;BME280;2902;42.130;24.732;2023-04-15T04:05:30;98879.06;;;11.55;76.61
5755;BME280;2902;42.130;24.732;2023-04-15T04:07:59;98878.66;;;11.51;77.01
5755;BME280;2902;42.130;24.732;2023-04-15T04:10:31;98876.72;;;11.40;76.71
5755;BME280;2902;42.130;24.732;2023-04-15T04:12:58;98877.13;;;11.37;77.39
5755;BME280;2902;42.130;24.732;2023-04-15T04:15:25;98882.06;;;11.34;76.56
5755;BME280;2902;42.130;24.732;2023-04-15T04:17:52;98893.50;;;11.34;76.31
5755;BME280;2902;42.130;24.732;2023-04-15T04:20:19;98894.94;;;11.37;75.55
5755;BME280;2902;42.130;24.732;2023-04-15T04:22:46;98905.28;;;11.20;75.46
5755;BME280;2902;42.130;24.732;2023-04-15T04:25:13;98899.34;;;11.18;76.05
5755;BME280;2902;42.130;24.732;2023-04-15T04:27:42;98878.81;;;11.32;76.13
5755;BME280;2902;42.130;24.732;2023-04-15T04:30:13;98901.97;;;12.05;75.48
5755;BME280;2902;42.130;24.732;2023-04-15T04:32:43;98910.63;;;12.72;71.29
5755;BME280;2902;42.130;24.732;2023-04-15T04:35:10;98926.03;;;13.18;69.52
5755;BME280;2902;42.130;24.732;2023-04-15T04:37:37;98912.81;;;13.52;68.17
5755;BME280;2902;42.130;24.732;2023-04-15T04:40:09;98927.50;;;13.84;65.61
5755;BME280;2902;42.130;24.732;2023-04-15T04:42:37;98928.47;;;14.13;63.64
5755;BME280;2902;42.130;24.732;2023-04-15T04:45:06;98944.97;;;14.44;62.29
5755;BME280;2902;42.130;24.732;2023-04-15T04:47:36;98948.75;;;14.83;60.24
5755;BME280;2902;42.130;24.732;2023-04-15T04:50:03;98942.69;;;15.15;59.10
5755;BME280;2902;42.130;24.732;2023-04-15T04:52:34;98940.88;;;15.44;57.62
5755;BME280;2902;42.130;24.732;2023-04-15T04:55:01;98944.44;;;15.49;56.87
5755;BME280;2902;42.130;24.732;2023-04-15T04:57:27;98950.50;;;15.73;56.79
5755;BME280;2902;42.130;24.732;2023-04-15T04:59:54;98949.53;;;15.96;55.41
5755;BME280;2902;42.130;24.732;2023-04-15T05:02:25;98942.78;;;16.26;54.43
5755;BME280;2902;42.130;24.732;2023-04-15T05:04:53;98949.34;;;16.73;52.91
5755;BME280;2902;42.130;24.732;2023-04-15T05:07:20;98948.94;;;16.81;52.83
5755;BME280;2902;42.130;24.732;2023-04-15T05:09:47;98971.94;;;17.42;50.50
5755;BME280;2902;42.130;24.732;2023-04-15T05:12:14;98949.56;;;17.89;49.26
5755;BME280;2902;42.130;24.732;2023-04-15T05:14:42;98941.41;;;18.11;48.42
5755;BME280;2902;42.130;24.732;2023-04-15T05:17:11;98934.19;;;18.53;48.46
5755;BME280;2902;42.130;24.732;2023-04-15T05:19:45;98938.16;;;18.87;46.19
5755;BME280;2902;42.130;24.732;2023-04-15T05:22:12;98932.88;;;19.22;45.09
5755;BME280;2902;42.130;24.732;2023-04-15T05:24:38;98931.63;;;19.39;44.75
5755;BME280;2902;42.130;24.732;2023-04-15T05:27:06;98926.81;;;19.76;44.71
5755;BME280;2902;42.130;24.732;2023-04-15T05:29:35;98935.19;;;20.35;42.16
5755;BME280;2902;42.130;24.732;2023-04-15T05:32:02;98943.78;;;20.37;42.30
5755;BME280;2902;42.130;24.732;2023-04-15T05:34:30;98959.25;;;21.20;40.65
5755;BME280;2902;42.130;24.732;2023-04-15T05:36:58;98967.66;;;21.62;39.70
5755;BME280;2902;42.130;24.732;2023-04-15T05:39:25;98971.16;;;22.06;37.84
5755;BME280;2902;42.130;24.732;2023-04-15T05:41:52;98963.09;;;21.96;37.24
5755;BME280;2902;42.130;24.732;2023-04-15T05:44:20;98957.81;;;21.81;38.78
5755;BME280;2902;42.130;24.732;2023-04-15T05:46:50;98955.72;;;21.73;38.26
5755;BME280;2902;42.130;24.732;2023-04-15T05:49:20;98972.81;;;22.02;37.66
5755;BME280;2902;42.130;24.732;2023-04-15T05:51:47;98968.09;;;21.79;38.61
5755;BME280;2902;42.130;24.732;2023-04-15T05:54:15;98971.94;;;21.73;38.28
5755;BME280;2902;42.130;24.732;2023-04-15T05:56:44;98979.75;;;21.80;38.58
5755;BME280;2902;42.130;24.732;2023-04-15T05:59:10;98971.56;;;21.36;38.38
5755;BME280;2902;42.130;24.732;2023-04-15T06:01:37;98977.09;;;21.11;39.32
5755;BME280;2902;42.130;24.732;2023-04-15T06:04:04;98973.91;;;20.89;39.90
5755;BME280;2902;42.130;24.732;2023-04-15T06:06:31;98971.78;;;20.91;40.16
5755;BME280;2902;42.130;24.732;2023-04-15T06:08:59;98986.16;;;20.57;40.98
5755;BME280;2902;42.130;24.732;2023-04-15T06:11:33;98983.19;;;20.38;41.97
5755;BME280;2902;42.130;24.732;2023-04-15T06:14:00;98977.25;;;20.41;42.08
5755;BME280;2902;42.130;24.732;2023-04-15T06:16:29;98981.03;;;20.50;42.00
5755;BME280;2902;42.130;24.732;2023-04-15T06:18:56;98981.03;;;20.40;42.27
5755;BME280;2902;42.130;24.732;2023-04-15T06:21:23;98979.66;;;19.92;43.19
5755;BME280;2902;42.130;24.732;2023-04-15T06:23:52;98979.38;;;19.84;43.85
5755;BME280;2902;42.130;24.732;2023-04-15T06:26:19;98975.59;;;19.60;45.00
5755;BME280;2902;42.130;24.732;2023-04-15T06:28:48;98983.16;;;19.78;44.53
5755;BME280;2902;42.130;24.732;2023-04-15T06:31:15;98988.03;;;20.21;44.77
5755;BME280;2902;42.130;24.732;2023-04-15T06:33:42;99000.41;;;20.62;42.84
5755;BME280;2902;42.130;24.732;2023-04-15T06:36:11;98991.50;;;20.67;43.58
5755;BME280;2902;42.130;24.732;2023-04-15T06:38:39;98996.78;;;21.17;42.84
5755;BME280;2902;42.130;24.732;2023-04-15T06:41:06;98996.38;;;21.53;41.74
5755;BME280;2902;42.130;24.732;2023-04-15T06:43:33;98996.38;;;21.53;41.75
5755;BME280;2902;42.130;24.732;2023-04-15T06:46:02;98988.22;;;21.58;43.04
5755;BME280;2902;42.130;24.732;2023-04-15T06:48:29;98990.88;;;21.63;42.64
5755;BME280;2902;42.130;24.732;2023-04-15T06:50:56;99005.63;;;22.24;42.17
5755;BME280;2902;42.130;24.732;2023-04-15T06:53:24;99000.06;;;22.44;41.55
5755;BME280;2902;42.130;24.732;2023-04-15T06:55:51;98992.03;;;22.01;42.70
5755;BME280;2902;42.130;24.732;2023-04-15T06:58:19;99001.69;;;22.07;43.35
5755;BME280;2902;42.130;24.732;2023-04-15T07:00:46;98996.63;;;22.00;44.32
5755;BME280;2902;42.130;24.732;2023-04-15T07:03:18;98996.84;;;22.09;45.47
5755;BME280;2902;42.130;24.732;2023-04-15T07:05:45;99000.03;;;22.49;43.32
5755;BME280;2902;42.130;24.732;2023-04-15T07:08:16;99000.75;;;22.83;43.92
5755;BME280;2902;42.130;24.732;2023-04-15T07:10:45;98984.81;;;23.05;43.13
5755;BME280;2902;42.130;24.732;2023-04-15T07:13:12;98999.91;;;22.64;44.44
5755;BME280;2902;42.130;24.732;2023-04-15T07:15:41;98998.47;;;22.95;44.01
5755;BME280;2902;42.130;24.732;2023-04-15T07:18:09;99004.09;;;22.75;44.88
5755;BME280;2902;42.130;24.732;2023-04-15T07:20:39;99007.91;;;22.74;45.17
5755;BME280;2902;42.130;24.732;2023-04-15T07:23:06;99003.53;;;22.78;45.23
5755;BME280;2902;42.130;24.732;2023-04-15T07:25:32;98999.13;;;22.25;46.31
5755;BME280;2902;42.130;24.732;2023-04-15T07:27:59;99013.66;;;22.34;46.83
5755;BME280;2902;42.130;24.732;2023-04-15T07:30:27;99020.38;;;22.08;46.77
5755;BME280;2902;42.130;24.732;2023-04-15T07:32:58;99027.59;;;22.56;45.85
5755;BME280;2902;42.130;24.732;2023-04-15T07:35:30;99022.34;;;22.93;43.64
5755;BME280;2902;42.130;24.732;2023-04-15T07:37:58;99005.81;;;22.95;43.38
5755;BME280;2902;42.130;24.732;2023-04-15T07:40:26;99027.22;;;23.20;42.74
5755;BME280;2902;42.130;24.732;2023-04-15T07:42:53;99020.75;;;23.39;42.30
5755;BME280;2902;42.130;24.732;2023-04-15T07:45:23;99015.94;;;23.73;41.09
5755;BME280;2902;42.130;24.732;2023-04-15T07:47:51;98944.03;;;23.15;42.32
5755;BME280;2902;42.130;24.732;2023-04-15T07:50:19;99005.97;;;23.50;42.17
5755;BME280;2902;42.130;24.732;2023-04-15T07:52:50;99001.94;;;23.85;40.95
5755;BME280;2902;42.130;24.732;2023-04-15T07:55:26;99012.84;;;23.61;42.38
5755;BME280;2902;42.130;24.732;2023-04-15T07:57:55;98996.88;;;23.41;40.69
5755;BME280;2902;42.130;24.732;2023-04-15T08:00:24;99012.19;;;23.69;46.82
5755;BME280;2902;42.130;24.732;2023-04-15T08:02:51;99014.69;;;23.84;41.73
5755;BME280;2902;42.130;24.732;2023-04-15T08:05:18;99007.81;;;24.10;44.69
5755;BME280;2902;42.130;24.732;2023-04-15T08:07:45;99007.00;;;24.28;39.20
5755;BME280;2902;42.130;24.732;2023-04-15T08:10:12;99011.56;;;24.78;43.56
5755;BME280;2902;42.130;24.732;2023-04-15T08:12:40;99000.47;;;24.61;38.47
5755;BME280;2902;42.130;24.732;2023-04-15T08:15:07;99017.19;;;24.82;37.69
5755;BME280;2902;42.130;24.732;2023-04-15T08:17:34;99018.84;;;24.51;37.91
5755;BME280;2902;42.130;24.732;2023-04-15T08:20:02;99009.06;;;24.82;40.13
5755;BME280;2902;42.130;24.732;2023-04-15T08:22:30;99018.06;;;25.10;37.49
5755;BME280;2902;42.130;24.732;2023-04-15T08:24:56;99018.22;;;24.99;37.77
5755;BME280;2902;42.130;24.732;2023-04-15T08:27:23;99000.84;;;24.23;38.92
5755;BME280;2902;42.130;24.732;2023-04-15T08:29:51;99014.63;;;24.08;39.53
5755;BME280;2902;42.130;24.732;2023-04-15T08:32:18;99001.69;;;24.37;37.69
5755;BME280;2902;42.130;24.732;2023-04-15T08:34:45;99017.22;;;24.95;40.10
5755;BME280;2902;42.130;24.732;2023-04-15T08:37:12;99002.31;;;25.61;39.43
5755;BME280;2902;42.130;24.732;2023-04-15T08:39:39;99004.50;;;25.72;37.49
5755;BME280;2902;42.130;24.732;2023-04-15T08:42:10;99005.81;;;25.75;36.94
5755;BME280;2902;42.130;24.732;2023-04-15T08:44:38;99002.50;;;25.64;34.34
5755;BME280;2902;42.130;24.732;2023-04-15T08:47:07;99004.94;;;25.52;36.33
5755;BME280;2902;42.130;24.732;2023-04-15T08:49:38;99006.72;;;25.84;36.39
5755;BME280;2902;42.130;24.732;2023-04-15T08:52:05;99008.63;;;26.19;34.84
5755;BME280;2902;42.130;24.732;2023-04-15T08:54:33;98996.53;;;26.55;33.41
5755;BME280;2902;42.130;24.732;2023-04-15T08:57:00;99001.59;;;26.70;35.40
5755;BME280;2902;42.130;24.732;2023-04-15T08:59:29;99001.75;;;26.96;32.48
5755;BME280;2902;42.130;24.732;2023-04-15T09:01:56;99001.38;;;26.89;32.87
5755;BME280;2902;42.130;24.732;2023-04-15T09:04:30;99005.31;;;27.05;31.76
5755;BME280;2902;42.130;24.732;2023-04-15T09:06:57;99000.69;;;27.14;31.60
5755;BME280;2902;42.130;24.732;2023-04-15T09:09:26;98999.91;;;27.13;32.91
5755;BME280;2902;42.130;24.732;2023-04-15T09:11:53;98994.13;;;27.15;31.55
5755;BME280;2902;42.130;24.732;2023-04-15T09:14:22;98995.41;;;26.78;31.27
5755;BME280;2902;42.130;24.732;2023-04-15T09:16:58;99002.31;;;27.15;32.29
5755;BME280;2902;42.130;24.732;2023-04-15T09:19:29;99000.81;;;27.48;32.24
5755;BME280;2902;42.130;24.732;2023-04-15T09:21:58;99002.00;;;27.64;30.84
5755;BME280;2902;42.130;24.732;2023-04-15T09:24:34;98992.50;;;27.70;28.53
5755;BME280;2902;42.130;24.732;2023-04-15T09:27:05;98984.28;;;27.53;29.94
5755;BME280;2902;42.130;24.732;2023-04-15T09:29:34;98983.66;;;27.56;30.59
5755;BME280;2902;42.130;24.732;2023-04-15T09:32:11;98977.25;;;27.69;29.54
5755;BME280;2902;42.130;24.732;2023-04-15T09:34:40;98976.63;;;27.72;30.31
5755;BME280;2902;42.130;24.732;2023-04-15T09:37:06;98977.63;;;27.84;30.14
5755;BME280;2902;42.130;24.732;2023-04-15T09:39:45;98976.94;;;27.79;27.85
5755;BME280;2902;42.130;24.732;2023-04-15T09:42:12;98961.84;;;27.73;30.53
5755;BME280;2902;42.130;24.732;2023-04-15T09:44:40;98968.56;;;27.50;30.22
5755;BME280;2902;42.130;24.732;2023-04-15T09:47:06;98956.22;;;27.61;31.09
5755;BME280;2902;42.130;24.732;2023-04-15T09:49:33;98956.38;;;27.73;31.53
5755;BME280;2902;42.130;24.732;2023-04-15T09:52:01;98957.63;;;27.50;30.44
5755;BME280;2902;42.130;24.732;2023-04-15T09:54:33;98969.50;;;27.37;30.84
5755;BME280;2902;42.130;24.732;2023-04-15T09:57:04;98961.50;;;27.49;31.64
5755;BME280;2902;42.130;24.732;2023-04-15T09:59:31;98962.00;;;27.68;31.49
5755;BME280;2902;42.130;24.732;2023-04-15T10:01:58;98961.78;;;27.39;31.32
5755;BME280;2902;42.130;24.732;2023-04-15T10:04:26;98970.78;;;27.31;31.01
5755;BME280;2902;42.130;24.732;2023-04-15T10:06:54;98962.56;;;27.22;30.37
5755;BME280;2902;42.130;24.732;2023-04-15T10:09:22;98963.06;;;27.33;32.04
5755;BME280;2902;42.130;24.732;2023-04-15T10:11:49;98943.22;;;26.63;30.69
5755;BME280;2902;42.130;24.732;2023-04-15T10:14:17;98939.78;;;26.27;32.42
5755;BME280;2902;42.130;24.732;2023-04-15T10:16:46;98952.06;;;26.46;31.84
5755;BME280;2902;42.130;24.732;2023-04-15T10:19:14;98933.97;;;26.72;31.98
5755;BME280;2902;42.130;24.732;2023-04-15T10:21:44;98936.94;;;26.93;29.33
5755;BME280;2902;42.130;24.732;2023-04-15T10:24:12;98923.28;;;26.84;29.31
5755;BME280;2902;42.130;24.732;2023-04-15T10:26:40;98924.31;;;26.58;30.09
5755;BME280;2902;42.130;24.732;2023-04-15T10:29:08;98923.28;;;26.54;28.11
5755;BME280;2902;42.130;24.732;2023-04-15T10:31:36;98931.94;;;26.56;27.63
5755;BME280;2902;42.130;24.732;2023-04-15T10:34:04;98926.25;;;26.66;29.21
5755;BME280;2902;42.130;24.732;2023-04-15T10:36:31;98924.31;;;26.58;28.62
5755;BME280;2902;42.130;24.732;2023-04-15T10:38:58;98916.81;;;26.63;29.08
5755;BME280;2902;42.130;24.732;2023-04-15T10:41:26;98909.47;;;26.81;31.41
5755;BME280;2902;42.130;24.732;2023-04-15T10:44:02;98908.50;;;26.77;31.75
5755;BME280;2902;42.130;24.732;2023-04-15T10:46:34;98926.44;;;26.69;31.11
5755;BME280;2902;42.130;24.732;2023-04-15T10:49:06;98901.78;;;26.83;31.97
5755;BME280;2902;42.130;24.732;2023-04-15T10:51:36;98903.25;;;26.89;31.45
5755;BME280;2902;42.130;24.732;2023-04-15T10:54:08;98911.34;;;27.11;30.42
5755;BME280;2902;42.130;24.732;2023-04-15T10:56:40;98906.09;;;27.31;31.14
5755;BME280;2902;42.130;24.732;2023-04-15T10:59:08;98898.91;;;27.44;31.40
5755;BME280;2902;42.130;24.732;2023-04-15T11:01:53;98892.94;;;27.42;31.74
5755;BME280;2902;42.130;24.732;2023-04-15T11:04:52;98906.88;;;26.67;31.56
5755;BME280;2902;42.130;24.732;2023-04-15T11:07:46;98895.69;;;26.47;32.26
5755;BME280;2902;42.130;24.732;2023-04-15T11:13:21;98896.41;;;26.61;32.46
5755;BME280;2902;42.130;24.732;2023-04-15T11:15:54;98894.78;;;25.41;32.64
5755;BME280;2902;42.130;24.732;2023-04-15T11:18:24;98893.63;;;25.07;38.75
5755;BME280;2902;42.130;24.732;2023-04-15T11:20:53;98887.94;;;25.44;37.11
5755;BME280;2902;42.130;24.732;2023-04-15T11:23:27;98888.44;;;25.68;32.82
5755;BME280;2902;42.130;24.732;2023-04-15T11:25:54;98887.81;;;25.71;34.36
5755;BME280;2902;42.130;24.732;2023-04-15T11:28:24;98876.19;;;25.57;33.31
5755;BME280;2902;42.130;24.732;2023-04-15T11:30:53;98886.50;;;25.46;34.18
5755;BME280;2902;42.130;24.732;2023-04-15T11:33:21;98873.72;;;25.69;36.77
5755;BME280;2902;42.130;24.732;2023-04-15T11:35:49;98896.56;;;25.46;35.57
5755;BME280;2902;42.130;24.732;2023-04-15T11:38:18;98885.84;;;25.63;36.03
5755;BME280;2902;42.130;24.732;2023-04-15T11:40:45;98866.31;;;25.61;34.23
5755;BME280;2902;42.130;24.732;2023-04-15T11:43:13;98864.34;;;25.26;34.87
5755;BME280;2902;42.130;24.732;2023-04-15T11:45:48;98868.63;;;25.32;35.31
5755;BME280;2902;42.130;24.732;2023-04-15T11:48:18;98855.09;;;24.91;36.92
5755;BME280;2902;42.130;24.732;2023-04-15T11:50:45;98865.44;;;25.02;35.92
5755;BME280;2902;42.130;24.732;2023-04-15T11:53:12;98852.41;;;24.64;36.73
5755;BME280;2902;42.130;24.732;2023-04-15T11:55:44;98851.97;;;24.84;37.49
5755;BME280;2902;42.130;24.732;2023-04-15T11:58:13;98845.41;;;24.98;36.67
5755;BME280;2902;42.130;24.732;2023-04-15T12:00:41;98843.34;;;24.68;37.38
5755;BME280;2902;42.130;24.732;2023-04-15T12:03:17;98849.66;;;24.77;37.20
5755;BME280;2902;42.130;24.732;2023-04-15T12:06:06;98841.41;;;24.69;37.16
5755;BME280;2902;42.130;24.732;2023-04-15T12:08:55;98836.09;;;24.77;37.57
5755;BME280;2902;42.130;24.732;2023-04-15T12:11:29;98854.28;;;24.77;36.94
5755;BME280;2902;42.130;24.732;2023-04-15T12:13:58;98837.41;;;24.66;35.56
5755;BME280;2902;42.130;24.732;2023-04-15T12:16:26;98837.22;;;24.76;36.90
5755;BME280;2902;42.130;24.732;2023-04-15T12:18:56;98835.56;;;24.48;36.99
5755;BME280;2902;42.130;24.732;2023-04-15T12:21:26;98844.91;;;24.56;36.75
5755;BME280;2902;42.130;24.732;2023-04-15T12:23:54;98843.50;;;24.58;35.98
5755;BME280;2902;42.130;24.732;2023-04-15T12:26:26;98841.00;;;24.48;37.00
5755;BME280;2902;42.130;24.732;2023-04-15T12:28:53;98829.13;;;24.58;36.13
5755;BME280;2902;42.130;24.732;2023-04-15T12:31:21;98830.06;;;24.67;36.18
5755;BME280;2902;42.130;24.732;2023-04-15T12:33:48;98829.66;;;24.73;36.77
5755;BME280;2902;42.130;24.732;2023-04-15T12:36:16;98825.59;;;24.84;36.03
5755;BME280;2902;42.130;24.732;2023-04-15T12:38:43;98831.25;;;24.74;36.39
5755;BME280;2902;42.130;24.732;2023-04-15T12:41:10;98825.41;;;24.67;36.35
5755;BME280;2902;42.130;24.732;2023-04-15T12:43:36;98828.44;;;24.52;36.55
5755;BME280;2902;42.130;24.732;2023-04-15T12:46:03;98833.88;;;24.39;37.01
5755;BME280;2902;42.130;24.732;2023-04-15T12:48:31;98823.00;;;24.25;37.18
5755;BME280;2902;42.130;24.732;2023-04-15T12:50:58;98828.41;;;24.25;37.68
5755;BME280;2902;42.130;24.732;2023-04-15T12:53:26;98830.03;;;24.13;38.63
5755;BME280;2902;42.130;24.732;2023-04-15T12:55:53;98824.16;;;23.92;38.92
5755;BME280;2902;42.130;24.732;2023-04-15T12:58:20;98830.75;;;23.86;39.56
5755;BME280;2902;42.130;24.732;2023-04-15T13:00:46;98830.31;;;23.79;39.76
5755;BME280;2902;42.130;24.732;2023-04-15T13:03:14;98821.16;;;23.75;40.67
5755;BME280;2902;42.130;24.732;2023-04-15T13:05:41;98833.06;;;23.61;40.24
5755;BME280;2902;42.130;24.732;2023-04-15T13:08:07;98834.47;;;23.58;40.64
5755;BME280;2902;42.130;24.732;2023-04-15T13:10:35;98822.50;;;23.27;41.75
5755;BME280;2902;42.130;24.732;2023-04-15T13:13:03;98818.25;;;23.21;42.16
5755;BME280;2902;42.130;24.732;2023-04-15T13:15:30;98826.81;;;23.28;42.52
5755;BME280;2902;42.130;24.732;2023-04-15T13:17:56;98820.88;;;23.26;42.33
5755;BME280;2902;42.130;24.732;2023-04-15T13:20:24;98819.38;;;23.15;42.54
5755;BME280;2902;42.130;24.732;2023-04-15T13:22:51;98823.13;;;23.19;42.64